Terminal Aerodrome Forecast
Issued by NWS

Home | Current Version | Previous Version | Text Only | Print | Product List | Glossary On
Versions: 1 2 3 4 5 6 7 8 9 10 11 12 13 14 15 16 17
989
FTUS41 KCAR 221120
TAFHUL
TAF
KHUL 221120Z 2212/2312 27008G15KT P6SM SKC
     FM221600 28012G19KT P6SM FEW250
     FM222300 28008KT P6SM FEW200
     FM231100 VRB03KT P6SM BKN060=

USA.gov is the U.S. government's official web portal to all federal, state and local government web resources and services.